sensor_id;sensor_type;location;lat;lon;timestamp;pressure;altitude;pressure_sealevel;temperature;humidity
73457;BME280;61691;53.072;6.582;2023-07-02T00:00:00;100509.19;;;16.99;61.20
73457;BME280;61691;53.072;6.582;2023-07-02T00:02:28;100515.38;;;17.00;61.15
73457;BME280;61691;53.072;6.582;2023-07-02T00:04:54;100498.38;;;16.93;61.18
73457;BME280;61691;53.072;6.582;2023-07-02T00:07:22;100507.44;;;16.92;61.22
73457;BME280;61691;53.072;6.582;2023-07-02T00:09:49;100499.97;;;16.87;61.12
73457;BME280;61691;53.072;6.582;2023-07-02T00:12:15;100509.09;;;16.93;61.00
73457;BME280;61691;53.072;6.582;2023-07-02T00:14:42;100485.56;;;16.74;61.27
73457;BME280;61691;53.072;6.582;2023-07-02T00:17:09;100491.84;;;16.81;61.10
73457;BME280;61691;53.072;6.582;2023-07-02T00:19:39;100489.91;;;16.75;61.28
73457;BME280;61691;53.072;6.582;2023-07-02T00:22:09;100504.50;;;16.87;61.24
73457;BME280;61691;53.072;6.582;2023-07-02T00:24:36;100510.22;;;16.84;61.44
73457;BME280;61691;53.072;6.582;2023-07-02T00:27:03;100503.91;;;16.77;61.10
73457;BME280;61691;53.072;6.582;2023-07-02T00:29:30;100482.00;;;16.58;60.83
73457;BME280;61691;53.072;6.582;2023-07-02T00:31:57;100482.16;;;16.57;61.38
73457;BME280;61691;53.072;6.582;2023-07-02T00:34:24;100498.34;;;16.63;61.52
73457;BME280;61691;53.072;6.582;2023-07-02T00:36:51;100502.41;;;16.59;61.21
73457;BME280;61691;53.072;6.582;2023-07-02T00:39:18;100511.09;;;16.61;61.01
73457;BME280;61691;53.072;6.582;2023-07-02T00:41:45;100498.56;;;16.54;61.29
73457;BME280;61691;53.072;6.582;2023-07-02T00:44:14;100483.81;;;16.43;60.91
73457;BME280;61691;53.072;6.582;2023-07-02T00:46:41;100467.34;;;16.32;61.32
73457;BME280;61691;53.072;6.582;2023-07-02T00:49:09;100508.47;;;16.53;61.12
73457;BME280;61691;53.072;6.582;2023-07-02T00:51:36;100495.53;;;16.42;60.50
73457;BME280;61691;53.072;6.582;2023-07-02T00:54:04;100496.63;;;16.48;60.84
73457;BME280;61691;53.072;6.582;2023-07-02T00:56:30;100493.84;;;16.41;61.02
73457;BME280;61691;53.072;6.582;2023-07-02T00:58:57;100477.53;;;16.36;61.40
73457;BME280;61691;53.072;6.582;2023-07-02T01:01:26;100484.38;;;16.39;60.70
73457;BME280;61691;53.072;6.582;2023-07-02T01:03:59;100495.88;;;16.39;61.04
73457;BME280;61691;53.072;6.582;2023-07-02T01:06:31;100481.38;;;16.34;61.12
73457;BME280;61691;53.072;6.582;2023-07-02T01:09:03;100417.72;;;15.92;60.77
73457;BME280;61691;53.072;6.582;2023-07-02T01:11:38;100484.22;;;16.32;60.84
73457;BME280;61691;53.072;6.582;2023-07-02T01:14:14;100490.78;;;16.30;61.57
73457;BME280;61691;53.072;6.582;2023-07-02T01:16:42;100478.31;;;16.22;61.33
73457;BME280;61691;53.072;6.582;2023-07-02T01:19:15;100482.66;;;16.23;61.55
73457;BME280;61691;53.072;6.582;2023-07-02T01:21:49;100475.53;;;16.15;61.68
73457;BME280;61691;53.072;6.582;2023-07-02T01:24:17;100479.22;;;16.14;61.91
73457;BME280;61691;53.072;6.582;2023-07-02T01:26:44;100477.38;;;16.15;61.70
73457;BME280;61691;53.072;6.582;2023-07-02T01:29:21;100463.13;;;16.00;61.50
73457;BME280;61691;53.072;6.582;2023-07-02T01:31:47;100490.81;;;16.07;61.61
73457;BME280;61691;53.072;6.582;2023-07-02T01:34:14;100474.53;;;15.94;61.76
73457;BME280;61691;53.072;6.582;2023-07-02T01:36:41;100476.72;;;15.90;61.87
73457;BME280;61691;53.072;6.582;2023-07-02T01:39:08;100467.91;;;15.81;61.78
73457;BME280;61691;53.072;6.582;2023-07-02T01:42:23;100449.97;;;15.67;62.30
73457;BME280;61691;53.072;6.582;2023-07-02T01:44:24;100477.09;;;15.79;62.38
73457;BME280;61691;53.072;6.582;2023-07-02T01:46:51;100463.31;;;15.67;62.34
73457;BME280;61691;53.072;6.582;2023-07-02T01:49:18;100452.84;;;15.58;62.65
73457;BME280;61691;53.072;6.582;2023-07-02T01:51:55;100445.22;;;15.46;62.70
73457;BME280;61691;53.072;6.582;2023-07-02T01:54:23;100474.72;;;15.61;62.85
73457;BME280;61691;53.072;6.582;2023-07-02T01:56:50;100481.06;;;15.60;63.08
73457;BME280;61691;53.072;6.582;2023-07-02T01:59:17;100478.41;;;15.52;62.76
73457;BME280;61691;53.072;6.582;2023-07-02T02:01:44;100488.13;;;15.53;63.41
73457;BME280;61691;53.072;6.582;2023-07-02T02:04:11;100497.66;;;15.56;63.53
73457;BME280;61691;53.072;6.582;2023-07-02T02:06:39;100497.28;;;15.50;63.38
73457;BME280;61691;53.072;6.582;2023-07-02T02:09:06;100451.84;;;15.20;63.59
73457;BME280;61691;53.072;6.582;2023-07-02T02:11:36;100492.19;;;15.41;63.43
73457;BME280;61691;53.072;6.582;2023-07-02T02:14:03;100485.19;;;15.32;63.83
73457;BME280;61691;53.072;6.582;2023-07-02T02:16:30;100500.53;;;15.38;63.68
73457;BME280;61691;53.072;6.582;2023-07-02T02:18:57;100499.19;;;15.34;63.74
73457;BME280;61691;53.072;6.582;2023-07-02T02:21:24;100491.56;;;15.23;63.94
73457;BME280;61691;53.072;6.582;2023-07-02T02:23:50;100476.59;;;15.14;64.22
73457;BME280;61691;53.072;6.582;2023-07-02T02:26:17;100493.56;;;15.21;64.27
73457;BME280;61691;53.072;6.582;2023-07-02T02:28:44;100505.59;;;15.25;64.15
73457;BME280;61691;53.072;6.582;2023-07-02T02:31:11;100504.63;;;15.18;64.28
73457;BME280;61691;53.072;6.582;2023-07-02T02:33:37;100498.09;;;15.12;64.42
73457;BME280;61691;53.072;6.582;2023-07-02T02:36:04;100444.69;;;14.73;64.69
73457;BME280;61691;53.072;6.582;2023-07-02T02:38:31;100489.81;;;14.99;64.67
73457;BME280;61691;53.072;6.582;2023-07-02T02:40:58;100491.81;;;14.97;64.69
73457;BME280;61691;53.072;6.582;2023-07-02T02:43:24;100513.81;;;15.07;64.59
73457;BME280;61691;53.072;6.582;2023-07-02T02:45:51;100514.34;;;15.02;64.74
73457;BME280;61691;53.072;6.582;2023-07-02T02:48:18;100509.34;;;14.99;64.97
73457;BME280;61691;53.072;6.582;2023-07-02T02:50:45;100524.03;;;15.03;65.20
73457;BME280;61691;53.072;6.582;2023-07-02T02:53:12;100517.66;;;14.96;64.85
73457;BME280;61691;53.072;6.582;2023-07-02T02:55:39;100516.88;;;14.96;65.17
73457;BME280;61691;53.072;6.582;2023-07-02T02:58:05;100500.53;;;14.83;65.12
73457;BME280;61691;53.072;6.582;2023-07-02T03:00:32;100516.88;;;14.88;65.08
73457;BME280;61691;53.072;6.582;2023-07-02T03:02:59;100497.72;;;14.76;65.05
73457;BME280;61691;53.072;6.582;2023-07-02T03:05:26;100517.03;;;14.86;65.30
73457;BME280;61691;53.072;6.582;2023-07-02T03:07:53;100469.91;;;14.54;65.52
73457;BME280;61691;53.072;6.582;2023-07-02T03:10:19;100488.25;;;14.65;65.30
73457;BME280;61691;53.072;6.582;2023-07-02T03:12:47;100507.72;;;14.74;65.28
73457;BME280;61691;53.072;6.582;2023-07-02T03:15:14;100526.06;;;14.77;65.46
73457;BME280;61691;53.072;6.582;2023-07-02T03:17:41;100510.06;;;14.69;65.90
73457;BME280;61691;53.072;6.582;2023-07-02T03:20:08;100525.38;;;14.75;65.91
73457;BME280;61691;53.072;6.582;2023-07-02T03:22:34;100520.72;;;14.69;66.20
73457;BME280;61691;53.072;6.582;2023-07-02T03:25:01;100532.75;;;14.73;66.15
73457;BME280;61691;53.072;6.582;2023-07-02T03:27:28;100514.91;;;14.65;65.88
73457;BME280;61691;53.072;6.582;2023-07-02T03:29:55;100519.06;;;14.68;66.37
73457;BME280;61691;53.072;6.582;2023-07-02T03:32:22;100521.06;;;14.66;66.24
73457;BME280;61691;53.072;6.582;2023-07-02T03:34:49;100508.41;;;14.60;66.19
73457;BME280;61691;53.072;6.582;2023-07-02T03:37:15;100527.06;;;14.76;66.57
73457;BME280;61691;53.072;6.582;2023-07-02T03:39:42;100510.91;;;14.69;66.38
73457;BME280;61691;53.072;6.582;2023-07-02T03:42:09;100521.25;;;14.73;66.92
73457;BME280;61691;53.072;6.582;2023-07-02T03:44:35;100537.19;;;14.89;66.69
73457;BME280;61691;53.072;6.582;2023-07-02T03:47:02;100531.88;;;14.89;67.02
73457;BME280;61691;53.072;6.582;2023-07-02T03:49:29;100512.03;;;14.83;66.58
73457;BME280;61691;53.072;6.582;2023-07-02T03:51:55;100531.34;;;15.01;66.90
73457;BME280;61691;53.072;6.582;2023-07-02T03:54:22;100527.00;;;15.08;66.76
73457;BME280;61691;53.072;6.582;2023-07-02T03:56:49;100530.97;;;15.13;66.52
73457;BME280;61691;53.072;6.582;2023-07-02T03:59:16;100521.47;;;15.18;66.46
73457;BME280;61691;53.072;6.582;2023-07-02T04:01:43;100497.59;;;15.17;66.68
73457;BME280;61691;53.072;6.582;2023-07-02T04:04:10;100530.56;;;15.40;66.44
73457;BME280;61691;53.072;6.582;2023-07-02T04:06:38;100546.75;;;15.55;65.86
73457;BME280;61691;53.072;6.582;2023-07-02T04:09:05;100446.59;;;15.03;66.46
73457;BME280;61691;53.072;6.582;2023-07-02T04:11:32;100525.84;;;15.50;66.06
73457;BME280;61691;53.072;6.582;2023-07-02T04:13:58;100554.31;;;15.74;65.83
73457;BME280;61691;53.072;6.582;2023-07-02T04:16:25;100544.47;;;15.74;65.84
73457;BME280;61691;53.072;6.582;2023-07-02T04:18:52;100522.50;;;15.87;65.73
73457;BME280;61691;53.072;6.582;2023-07-02T04:21:18;100544.75;;;16.33;65.51
73457;BME280;61691;53.072;6.582;2023-07-02T04:23:45;100537.78;;;16.47;64.84
73457;BME280;61691;53.072;6.582;2023-07-02T04:26:12;100541.19;;;16.63;64.30
73457;BME280;61691;53.072;6.582;2023-07-02T04:28:59;100530.16;;;16.58;63.73
73457;BME280;61691;53.072;6.582;2023-07-02T04:31:25;100545.28;;;16.51;63.48
73457;BME280;61691;53.072;6.582;2023-07-02T04:33:52;100553.66;;;16.48;63.53
73457;BME280;61691;53.072;6.582;2023-07-02T04:36:19;100552.72;;;16.41;63.53
73457;BME280;61691;53.072;6.582;2023-07-02T04:38:46;100552.13;;;16.31;63.82
73457;BME280;61691;53.072;6.582;2023-07-02T04:41:12;100545.34;;;16.20;63.74
73457;BME280;61691;53.072;6.582;2023-07-02T04:43:39;100558.44;;;16.15;63.58
73457;BME280;61691;53.072;6.582;2023-07-02T04:46:06;100564.63;;;16.16;63.48
73457;BME280;61691;53.072;6.582;2023-07-02T04:48:35;100543.56;;;16.13;63.69
73457;BME280;61691;53.072;6.582;2023-07-02T04:51:02;100564.84;;;16.75;64.68
73457;BME280;61691;53.072;6.582;2023-07-02T04:53:29;100532.56;;;17.50;63.98
73457;BME280;61691;53.072;6.582;2023-07-02T04:55:56;100541.25;;;18.66;62.53
73457;BME280;61691;53.072;6.582;2023-07-02T04:58:23;100568.88;;;19.85;60.28
73457;BME280;61691;53.072;6.582;2023-07-02T05:00:50;100525.38;;;20.48;57.58
73457;BME280;61691;53.072;6.582;2023-07-02T05:03:17;100574.75;;;21.66;55.92
73457;BME280;61691;53.072;6.582;2023-07-02T05:05:44;100553.13;;;22.49;53.75
73457;BME280;61691;53.072;6.582;2023-07-02T05:08:11;100552.31;;;23.23;51.23
73457;BME280;61691;53.072;6.582;2023-07-02T05:10:38;100559.28;;;23.85;48.55
73457;BME280;61691;53.072;6.582;2023-07-02T05:13:04;100537.13;;;24.24;47.06
73457;BME280;61691;53.072;6.582;2023-07-02T05:15:31;100565.75;;;24.85;45.44
73457;BME280;61691;53.072;6.582;2023-07-02T05:17:58;100562.09;;;25.26;43.51
73457;BME280;61691;53.072;6.582;2023-07-02T05:20:26;100580.94;;;25.68;42.22
73457;BME280;61691;53.072;6.582;2023-07-02T05:22:52;100583.38;;;25.93;40.51
73457;BME280;61691;53.072;6.582;2023-07-02T05:25:19;100566.41;;;26.02;39.70
73457;BME280;61691;53.072;6.582;2023-07-02T05:27:46;100570.56;;;26.33;37.51
73457;BME280;61691;53.072;6.582;2023-07-02T05:30:14;100562.69;;;26.48;36.85
73457;BME280;61691;53.072;6.582;2023-07-02T05:32:42;100563.94;;;26.74;36.24
73457;BME280;61691;53.072;6.582;2023-07-02T05:35:09;100575.16;;;27.11;35.66
73457;BME280;61691;53.072;6.582;2023-07-02T05:37:35;100576.41;;;27.42;34.32
73457;BME280;61691;53.072;6.582;2023-07-02T05:40:02;100583.75;;;27.80;33.61
73457;BME280;61691;53.072;6.582;2023-07-02T05:42:29;100589.38;;;28.17;33.31
73457;BME280;61691;53.072;6.582;2023-07-02T05:44:56;100575.66;;;28.34;32.42
73457;BME280;61691;53.072;6.582;2023-07-02T05:47:23;100579.75;;;28.68;31.74
73457;BME280;61691;53.072;6.582;2023-07-02T05:49:49;100572.38;;;28.64;30.17
73457;BME280;61691;53.072;6.582;2023-07-02T05:52:16;100569.69;;;27.88;30.53
73457;BME280;61691;53.072;6.582;2023-07-02T05:54:45;100598.91;;;26.99;30.98
73457;BME280;61691;53.072;6.582;2023-07-02T05:57:12;100585.78;;;25.77;32.55
73457;BME280;61691;53.072;6.582;2023-07-02T05:59:38;100585.69;;;24.91;34.00
73457;BME280;61691;53.072;6.582;2023-07-02T06:02:05;100600.16;;;24.13;35.75
73457;BME280;61691;53.072;6.582;2023-07-02T06:04:32;100607.53;;;23.15;37.30
73457;BME280;61691;53.072;6.582;2023-07-02T06:07:00;100571.56;;;22.27;38.25
73457;BME280;61691;53.072;6.582;2023-07-02T06:09:27;100619.06;;;21.96;39.72
73457;BME280;61691;53.072;6.582;2023-07-02T06:11:54;100613.38;;;21.60;40.68
73457;BME280;61691;53.072;6.582;2023-07-02T06:14:21;100594.72;;;21.52;41.54
73457;BME280;61691;53.072;6.582;2023-07-02T06:16:49;100599.97;;;21.98;42.71
73457;BME280;61691;53.072;6.582;2023-07-02T06:19:16;100609.47;;;23.26;41.70
73457;BME280;61691;53.072;6.582;2023-07-02T06:21:43;100589.81;;;24.40;39.84
73457;BME280;61691;53.072;6.582;2023-07-02T06:24:10;100606.59;;;25.60;37.31
73457;BME280;61691;53.072;6.582;2023-07-02T06:26:36;100596.13;;;26.49;35.66
73457;BME280;61691;53.072;6.582;2023-07-02T06:29:03;100582.31;;;27.17;33.83
73457;BME280;61691;53.072;6.582;2023-07-02T06:31:30;100593.38;;;27.88;32.89
73457;BME280;61691;53.072;6.582;2023-07-02T06:33:57;100609.06;;;28.78;31.83
73457;BME280;61691;53.072;6.582;2023-07-02T06:36:24;100618.56;;;29.44;30.49
73457;BME280;61691;53.072;6.582;2023-07-02T06:38:50;100626.09;;;29.32;28.92
73457;BME280;61691;53.072;6.582;2023-07-02T06:41:17;100621.88;;;28.50;29.41
73457;BME280;61691;53.072;6.582;2023-07-02T06:43:44;100568.06;;;27.49;30.14
73457;BME280;61691;53.072;6.582;2023-07-02T06:46:11;100632.00;;;27.29;31.01
73457;BME280;61691;53.072;6.582;2023-07-02T06:48:38;100623.63;;;27.14;31.47
73457;BME280;61691;53.072;6.582;2023-07-02T06:51:05;100614.34;;;27.49;31.30
73457;BME280;61691;53.072;6.582;2023-07-02T06:53:33;100632.16;;;28.17;30.79
73457;BME280;61691;53.072;6.582;2023-07-02T06:56:00;100641.94;;;28.66;29.33
73457;BME280;61691;53.072;6.582;2023-07-02T06:58:27;100652.06;;;28.98;28.72
73457;BME280;61691;53.072;6.582;2023-07-02T07:00:53;100644.03;;;29.18;28.67
73457;BME280;61691;53.072;6.582;2023-07-02T07:03:20;100643.16;;;29.44;27.83
73457;BME280;61691;53.072;6.582;2023-07-02T07:05:47;100658.31;;;30.24;27.96
73457;BME280;61691;53.072;6.582;2023-07-02T07:08:14;100615.13;;;30.31;25.93
73457;BME280;61691;53.072;6.582;2023-07-02T07:10:40;100651.44;;;30.17;26.14
73457;BME280;61691;53.072;6.582;2023-07-02T12:07:52;100816.31;;;21.69;40.10
73457;BME280;61691;53.072;6.582;2023-07-02T12:10:19;100829.19;;;21.73;39.39
73457;BME280;61691;53.072;6.582;2023-07-02T12:12:45;100829.59;;;21.57;39.69
73457;BME280;61691;53.072;6.582;2023-07-02T12:15:12;100835.19;;;21.49;39.99
73457;BME280;61691;53.072;6.582;2023-07-02T12:17:39;100854.06;;;21.42;40.37
73457;BME280;61691;53.072;6.582;2023-07-02T12:20:06;100870.44;;;21.34;40.98
73457;BME280;61691;53.072;6.582;2023-07-02T12:22:33;100846.34;;;21.19;41.28
73457;BME280;61691;53.072;6.582;2023-07-02T12:25:00;100851.94;;;21.24;41.58
73457;BME280;61691;53.072;6.582;2023-07-02T12:27:26;100853.63;;;21.32;41.60
73457;BME280;61691;53.072;6.582;2023-07-02T12:29:55;100874.81;;;21.42;41.29
73457;BME280;61691;53.072;6.582;2023-07-02T12:32:22;100865.47;;;21.38;40.64
73457;BME280;61691;53.072;6.582;2023-07-02T12:34:49;100882.69;;;21.43;39.75
73457;BME280;61691;53.072;6.582;2023-07-02T12:37:16;100865.66;;;21.43;40.33
73457;BME280;61691;53.072;6.582;2023-07-02T12:39:45;100862.19;;;21.49;39.27
73457;BME280;61691;53.072;6.582;2023-07-02T12:42:12;100882.72;;;21.63;38.35
73457;BME280;61691;53.072;6.582;2023-07-02T12:44:38;100867.56;;;21.62;38.52
73457;BME280;61691;53.072;6.582;2023-07-02T12:47:05;100888.78;;;21.78;38.98
73457;BME280;61691;53.072;6.582;2023-07-02T12:49:32;100904.53;;;21.81;38.38
73457;BME280;61691;53.072;6.582;2023-07-02T12:51:59;100891.03;;;21.75;37.80
73457;BME280;61691;53.072;6.582;2023-07-02T12:54:26;100885.44;;;21.83;38.36
73457;BME280;61691;53.072;6.582;2023-07-02T12:56:53;100910.97;;;21.80;38.77
73457;BME280;61691;53.072;6.582;2023-07-02T12:59:20;100911.41;;;21.77;39.01
73457;BME280;61691;53.072;6.582;2023-07-02T13:01:46;100913.44;;;21.62;39.33
73457;BME280;61691;53.072;6.582;2023-07-02T13:04:14;100902.81;;;21.41;39.96
73457;BME280;61691;53.072;6.582;2023-07-02T13:06:42;100880.91;;;21.09;40.23
73457;BME280;61691;53.072;6.582;2023-07-02T13:09:11;100904.56;;;21.14;40.13
73457;BME280;61691;53.072;6.582;2023-07-02T13:11:38;100896.41;;;20.94;40.21
73457;BME280;61691;53.072;6.582;2023-07-02T13:14:05;100888.25;;;20.81;41.32
73457;BME280;61691;53.072;6.582;2023-07-02T13:16:31;100909.41;;;20.84;41.43
73457;BME280;61691;53.072;6.582;2023-07-02T13:18:58;100888.22;;;20.74;41.94
73457;BME280;61691;53.072;6.582;2023-07-02T13:21:28;100898.63;;;20.84;42.31
73457;BME280;61691;53.072;6.582;2023-07-02T13:23:55;100916.13;;;21.01;42.61
73457;BME280;61691;53.072;6.582;2023-07-02T13:26:22;100918.19;;;21.06;42.33
73457;BME280;61691;53.072;6.582;2023-07-02T13:28:48;100896.22;;;21.02;42.44
73457;BME280;61691;53.072;6.582;2023-07-02T13:31:15;100919.16;;;21.19;42.19
73457;BME280;61691;53.072;6.582;2023-07-02T13:33:42;100903.53;;;21.15;41.99
73457;BME280;61691;53.072;6.582;2023-07-02T13:36:09;100896.06;;;21.10;41.90
73457;BME280;61691;53.072;6.582;2023-07-02T13:38:36;100934.53;;;21.32;42.05
73457;BME280;61691;53.072;6.582;2023-07-02T13:41:03;100933.69;;;21.25;41.80
73457;BME280;61691;53.072;6.582;2023-07-02T13:43:30;100898.75;;;21.10;41.72
73457;BME280;61691;53.072;6.582;2023-07-02T13:45:57;100936.97;;;21.20;41.68
73457;BME280;61691;53.072;6.582;2023-07-02T13:48:23;100925.72;;;21.10;41.78
73457;BME280;61691;53.072;6.582;2023-07-02T13:50:53;100925.88;;;21.02;41.89
73457;BME280;61691;53.072;6.582;2023-07-02T13:53:20;100936.88;;;21.07;41.60
73457;BME280;61691;53.072;6.582;2023-07-02T13:55:47;100924.44;;;21.06;41.78
73457;BME280;61691;53.072;6.582;2023-07-02T13:58:15;100926.34;;;21.12;41.70
73457;BME280;61691;53.072;6.582;2023-07-02T14:00:55;100916.50;;;20.98;41.22
73457;BME280;61691;53.072;6.582;2023-07-02T14:03:22;100910.22;;;20.84;41.17
73457;BME280;61691;53.072;6.582;2023-07-02T14:05:49;100924.44;;;21.06;40.84
73457;BME280;61691;53.072;6.582;2023-07-02T14:08:17;100932.34;;;21.14;41.21
73457;BME280;61691;53.072;6.582;2023-07-02T14:10:44;100936.34;;;21.18;40.52
73457;BME280;61691;53.072;6.582;2023-07-02T14:13:11;100907.88;;;21.09;40.18
73457;BME280;61691;53.072;6.582;2023-07-02T14:15:37;100941.47;;;21.13;40.17
73457;BME280;61691;53.072;6.582;2023-07-02T14:18:04;100915.19;;;20.81;39.67
73457;BME280;61691;53.072;6.582;2023-07-02T14:20:32;100946.91;;;20.79;40.06
73457;BME280;61691;53.072;6.582;2023-07-02T14:22:58;100947.88;;;20.71;40.00
73457;BME280;61691;53.072;6.582;2023-07-02T14:25:25;100943.28;;;20.65;40.53
73457;BME280;61691;53.072;6.582;2023-07-02T14:28:06;100957.19;;;20.69;40.60
73457;BME280;61691;53.072;6.582;2023-07-02T14:30:33;100941.59;;;20.58;41.21
73457;BME280;61691;53.072;6.582;2023-07-02T14:32:59;100944.94;;;20.60;41.11
73457;BME280;61691;53.072;6.582;2023-07-02T14:35:26;100907.56;;;20.22;41.70
73457;BME280;61691;53.072;6.582;2023-07-02T14:37:54;100944.44;;;20.50;41.92
73457;BME280;61691;53.072;6.582;2023-07-02T14:40:21;100959.16;;;20.54;42.04
73457;BME280;61691;53.072;6.582;2023-07-02T14:42:48;100955.19;;;20.50;42.24
73457;BME280;61691;53.072;6.582;2023-07-02T14:45:15;100934.94;;;20.32;42.75
73457;BME280;61691;53.072;6.582;2023-07-02T14:47:43;100949.97;;;20.41;43.01
73457;BME280;61691;53.072;6.582;2023-07-02T14:50:09;100939.03;;;20.50;43.17
73457;BME280;61691;53.072;6.582;2023-07-02T14:52:36;100942.22;;;20.60;42.38
73457;BME280;61691;53.072;6.582;2023-07-02T14:55:03;100882.28;;;20.51;42.19
73457;BME280;61691;53.072;6.582;2023-07-02T14:57:31;100943.91;;;21.02;41.48
73457;BME280;61691;53.072;6.582;2023-07-02T14:59:58;100935.22;;;21.06;40.57
73457;BME280;61691;53.072;6.582;2023-07-02T15:02:24;100949.84;;;21.25;39.67
73457;BME280;61691;53.072;6.582;2023-07-02T15:04:51;100932.81;;;21.18;37.74
73457;BME280;61691;53.072;6.582;2023-07-02T15:07:18;100914.06;;;21.03;36.93
73457;BME280;61691;53.072;6.582;2023-07-02T15:09:46;100947.28;;;21.10;36.76
73457;BME280;61691;53.072;6.582;2023-07-02T15:12:13;100941.03;;;21.03;36.11
73457;BME280;61691;53.072;6.582;2023-07-02T15:14:40;100932.63;;;20.85;36.83
73457;BME280;61691;53.072;6.582;2023-07-02T15:17:07;100938.00;;;20.85;36.89
73457;BME280;61691;53.072;6.582;2023-07-02T15:19:34;100944.25;;;20.92;37.01
73457;BME280;61691;53.072;6.582;2023-07-02T15:22:01;100925.34;;;20.79;36.96
73457;BME280;61691;53.072;6.582;2023-07-02T15:24:27;100919.94;;;20.79;37.50
73457;BME280;61691;53.072;6.582;2023-07-02T15:26:54;100943.81;;;20.82;37.46
73457;BME280;61691;53.072;6.582;2023-07-02T15:29:21;100936.28;;;20.71;37.57
73457;BME280;61691;53.072;6.582;2023-07-02T15:31:48;100930.81;;;20.58;37.26
73457;BME280;61691;53.072;6.582;2023-07-02T15:34:14;100951.19;;;20.67;37.01
73457;BME280;61691;53.072;6.582;2023-07-02T15:36:45;100938.53;;;20.39;36.90
73457;BME280;61691;53.072;6.582;2023-07-02T15:39:12;100931.00;;;20.28;36.70
73457;BME280;61691;53.072;6.582;2023-07-02T15:41:39;100937.91;;;20.16;36.96
73457;BME280;61691;53.072;6.582;2023-07-02T15:44:08;100926.91;;;20.11;37.56
73457;BME280;61691;53.072;6.582;2023-07-02T15:46:35;100932.09;;;20.13;37.82
73457;BME280;61691;53.072;6.582;2023-07-02T15:49:02;100947.47;;;20.19;37.95
73457;BME280;61691;53.072;6.582;2023-07-02T15:51:30;100928.72;;;20.04;38.25
73457;BME280;61691;53.072;6.582;2023-07-02T15:54:03;100929.56;;;20.04;38.63
73457;BME280;61691;53.072;6.582;2023-07-02T15:56:33;100941.25;;;20.18;38.74
73457;BME280;61691;53.072;6.582;2023-07-02T15:59:00;100943.72;;;20.13;38.89
73457;BME280;61691;53.072;6.582;2023-07-02T16:01:28;100938.22;;;20.28;39.25
73457;BME280;61691;53.072;6.582;2023-07-02T16:03:55;100921.38;;;20.19;39.38
73457;BME280;61691;53.072;6.582;2023-07-02T16:06:22;100941.75;;;20.28;39.46
73457;BME280;61691;53.072;6.582;2023-07-02T16:08:51;100941.34;;;20.31;39.58
73457;BME280;61691;53.072;6.582;2023-07-02T16:11:18;100941.00;;;20.34;39.35
73457;BME280;61691;53.072;6.582;2023-07-02T16:13:45;100957.66;;;20.44;39.88
73457;BME280;61691;53.072;6.582;2023-07-02T16:16:11;100955.59;;;20.46;40.00
73457;BME280;61691;53.072;6.582;2023-07-02T16:18:38;100938.84;;;20.30;39.57
73457;BME280;61691;53.072;6.582;2023-07-02T16:21:05;100896.03;;;20.07;39.36
73457;BME280;61691;53.072;6.582;2023-07-02T16:23:33;100956.00;;;20.43;39.67
73457;BME280;61691;53.072;6.582;2023-07-02T16:26:03;100936.44;;;20.35;39.78
73457;BME280;61691;53.072;6.582;2023-07-02T16:28:31;100953.78;;;20.32;39.78
73457;BME280;61691;53.072;6.582;2023-07-02T16:30:59;100927.56;;;20.13;39.62
73457;BME280;61691;53.072;6.582;2023-07-02T16:33:26;100927.75;;;20.12;39.87
73457;BME280;61691;53.072;6.582;2023-07-02T16:35:53;100918.78;;;20.04;40.06
73457;BME280;61691;53.072;6.582;2023-07-02T16:38:20;100929.22;;;20.14;40.67
73457;BME280;61691;53.072;6.582;2023-07-02T16:40:47;100933.19;;;20.18;40.61
73457;BME280;61691;53.072;6.582;2023-07-02T16:43:14;100950.88;;;20.27;40.73
73457;BME280;61691;53.072;6.582;2023-07-02T16:45:42;100954.19;;;20.29;40.32
73457;BME280;61691;53.072;6.582;2023-07-02T16:48:09;100941.19;;;20.12;40.35
73457;BME280;61691;53.072;6.582;2023-07-02T16:50:36;100944.13;;;20.17;40.27
73457;BME280;61691;53.072;6.582;2023-07-02T16:53:02;100946.97;;;20.08;40.45
73457;BME280;61691;53.072;6.582;2023-07-02T16:55:29;100950.25;;;20.04;40.29
73457;BME280;61691;53.072;6.582;2023-07-02T16:57:57;100947.75;;;20.02;40.25
73457;BME280;61691;53.072;6.582;2023-07-02T17:00:24;100945.19;;;19.94;40.65
73457;BME280;61691;53.072;6.582;2023-07-02T17:02:51;100943.97;;;19.97;40.41
73457;BME280;61691;53.072;6.582;2023-07-02T17:05:18;100946.78;;;19.89;40.91
73457;BME280;61691;53.072;6.582;2023-07-02T17:07:44;100937.19;;;19.80;41.09
73457;BME280;61691;53.072;6.582;2023-07-02T17:10:11;100935.19;;;19.67;41.05
73457;BME280;61691;53.072;6.582;2023-07-02T17:12:38;100945.78;;;19.68;41.06
73457;BME280;61691;53.072;6.582;2023-07-02T17:15:05;100932.44;;;19.60;41.14
73457;BME280;61691;53.072;6.582;2023-07-02T17:17:32;100934.41;;;19.52;41.58
73457;BME280;61691;53.072;6.582;2023-07-02T17:19:59;100948.19;;;19.63;41.55
73457;BME280;61691;53.072;6.582;2023-07-02T17:22:30;100944.09;;;19.67;41.86
73457;BME280;61691;53.072;6.582;2023-07-02T17:24:58;100938.72;;;19.67;41.83
73457;BME280;61691;53.072;6.582;2023-07-02T17:27:28;100932.88;;;19.64;42.16
73457;BME280;61691;53.072;6.582;2023-07-02T17:30:02;100946.59;;;19.69;42.33
73457;BME280;61691;53.072;6.582;2023-07-02T17:32:30;100929.75;;;19.60;42.24
73457;BME280;61691;53.072;6.582;2023-07-02T17:34:57;100940.38;;;19.68;42.58
73457;BME280;61691;53.072;6.582;2023-07-02T17:37:24;100937.13;;;19.73;43.02
73457;BME280;61691;53.072;6.582;2023-07-02T17:39:52;100906.03;;;19.70;42.92
73457;BME280;61691;53.072;6.582;2023-07-02T17:42:20;100936.03;;;19.89;42.81
73457;BME280;61691;53.072;6.582;2023-07-02T17:44:47;100920.19;;;19.79;42.60